createdAt,value
2018-10-21T00:02:24.627Z,102723.52
2018-10-21T00:04:54.997Z,102719.39
2018-10-21T00:07:25.708Z,102718.80
2018-10-21T00:09:57.146Z,102723.76
2018-10-21T00:12:28.507Z,102719.66
2018-10-21T00:14:58.771Z,102718.77
2018-10-21T00:17:30.723Z,102706.88
2018-10-21T00:20:00.743Z,102703.25
2018-10-21T00:22:31.510Z,102705.91
2018-10-21T00:25:03.017Z,102712.11
2018-10-21T00:27:34.523Z,102708.42
2018-10-21T00:30:04.557Z,102701.33
2018-10-21T00:32:39.935Z,102707.66
2018-10-21T00:35:10.933Z,102703.27
2018-10-21T00:37:42.493Z,102704.20
2018-10-21T00:40:12.394Z,102710.70
2018-10-21T00:42:43.966Z,102702.11
2018-10-21T00:45:13.988Z,102696.80
2018-10-21T00:47:45.726Z,102693.98
2018-10-21T00:50:18.110Z,102688.71
2018-10-21T00:52:48.244Z,102689.20
2018-10-21T00:55:18.144Z,102689.06
2018-10-21T00:57:48.079Z,102691.91
2018-10-21T01:00:17.956Z,102690.89
2018-10-21T01:02:49.744Z,102685.62
2018-10-21T01:05:20.997Z,102688.30
2018-10-21T01:07:51.390Z,102682.36
2018-10-21T01:10:21.257Z,102680.59
2018-10-21T01:12:52.034Z,102677.13
2018-10-21T01:15:23.171Z,102686.49
2018-10-21T01:17:53.084Z,102683.48
2018-10-21T01:20:24.934Z,102682.53
2018-10-21T01:22:55.315Z,102683.34
2018-10-21T01:25:26.497Z,102675.42
2018-10-21T01:27:58.050Z,102673.64
2018-10-21T01:30:29.781Z,102688.64
2018-10-21T01:33:01.334Z,102682.53
2018-10-21T01:35:32.717Z,102689.00
2018-10-21T01:38:03.594Z,102685.44
2018-10-21T01:40:40.709Z,102688.86
2018-10-21T01:43:13.661Z,102697.31
2018-10-21T01:45:44.386Z,102697.18
2018-10-21T01:48:15.577Z,102696.71
2018-10-21T01:50:47.419Z,102687.95
2018-10-21T01:53:18.792Z,102682.25
2018-10-21T01:55:49.482Z,102688.83
2018-10-21T01:58:19.583Z,102680.34
2018-10-21T02:00:49.927Z,102680.31
2018-10-21T02:03:20.383Z,102666.91
2018-10-21T02:05:52.329Z,102659.68
2018-10-21T02:08:22.333Z,102659.98
2018-10-21T02:10:52.881Z,102657.56
2018-10-21T02:13:22.981Z,102655.94
2018-10-21T02:15:52.991Z,102649.02
2018-10-21T02:18:22.998Z,102644.22
2018-10-21T02:20:54.486Z,102650.58
2018-10-21T02:23:24.945Z,102642.50
2018-10-21T02:25:55.215Z,102643.29
2018-10-21T02:28:26.149Z,102648.05
2018-10-21T02:30:57.417Z,102644.24
2018-10-21T02:33:27.612Z,102649.67
2018-10-21T02:35:58.475Z,102643.06
2018-10-21T02:38:29.034Z,102637.73
2018-10-21T02:41:45.852Z,102640.19
2018-10-21T02:44:19.562Z,102633.38
2018-10-21T02:46:52.622Z,102636.53
2018-10-21T02:49:22.849Z,102639.19
2018-10-21T02:51:58.286Z,102639.52
2018-10-21T02:54:29.257Z,102647.30
2018-10-21T02:56:59.590Z,102648.66
2018-10-21T02:59:29.570Z,102645.89
2018-10-21T03:02:00.559Z,102653.16
2018-10-21T03:04:30.736Z,102654.59
2018-10-21T03:07:01.261Z,102659.12
2018-10-21T03:09:32.335Z,102658.68
2018-10-21T03:12:03.163Z,102658.77
2018-10-21T03:14:33.674Z,102661.70
2018-10-21T03:17:03.898Z,102663.82
2018-10-21T03:19:34.214Z,102654.88
2018-10-21T03:22:05.236Z,102662.41
2018-10-21T03:24:37.427Z,102660.14
2018-10-21T03:27:08.755Z,102661.61
2018-10-21T03:29:39.100Z,102658.77
2018-10-21T03:32:09.699Z,102658.94
2018-10-21T03:34:42.697Z,102650.80
2018-10-21T03:37:23.596Z,102655.94
2018-10-21T03:39:54.972Z,102649.80
2018-10-21T03:42:26.040Z,102654.59
2018-10-21T03:44:56.868Z,102652.85
2018-10-21T03:47:27.917Z,102656.16
2018-10-21T03:49:58.315Z,102656.44
2018-10-21T03:52:28.225Z,102662.75
2018-10-21T03:54:59.595Z,102659.40
2018-10-21T03:57:29.509Z,102662.53
2018-10-21T03:59:59.688Z,102661.55
2018-10-21T04:02:29.752Z,102661.22
2018-10-21T04:05:00.110Z,102657.08
2018-10-21T04:07:30.741Z,102660.09
2018-10-21T04:10:01.919Z,102652.94
2018-10-21T04:12:32.142Z,102646.34
2018-10-21T04:15:02.900Z,102654.41
2018-10-21T04:17:32.798Z,102646.64
2018-10-21T04:20:03.305Z,102646.14
2018-10-21T04:22:37.599Z,102646.10
2018-10-21T04:25:09.764Z,102646.42
2018-10-21T04:27:41.354Z,102655.19
2018-10-21T04:30:17.010Z,102649.44
2018-10-21T04:32:49.539Z,102652.42
2018-10-21T04:35:19.930Z,102649.47
2018-10-21T04:38:36.868Z,102648.13
2018-10-21T04:41:07.969Z,102638.27
2018-10-21T04:43:38.028Z,102627.21
2018-10-21T04:46:08.190Z,102628.80
2018-10-21T04:48:38.407Z,102624.62
2018-10-21T04:51:10.893Z,102633.23
2018-10-21T04:53:41.350Z,102627.27
2018-10-21T04:56:11.908Z,102621.77
2018-10-21T04:58:42.766Z,102627.72
2018-10-21T05:01:14.097Z,102625.33
2018-10-21T05:03:45.546Z,102639.11
2018-10-21T05:06:16.446Z,102630.80
2018-10-21T05:08:47.289Z,102629.39
2018-10-21T05:11:19.496Z,102631.98
2018-10-21T05:13:49.388Z,102637.00
2018-10-21T05:16:19.913Z,102634.79
2018-10-21T05:18:50.846Z,102640.81
2018-10-21T05:21:21.612Z,102634.95
2018-10-21T05:23:53.120Z,102634.18
2018-10-21T05:26:23.962Z,102638.26
2018-10-21T05:28:54.492Z,102625.20
2018-10-21T05:31:25.228Z,102636.05
2018-10-21T05:33:56.201Z,102640.44
2018-10-21T05:36:26.114Z,102635.73
2018-10-21T05:38:55.896Z,102630.69
2018-10-21T05:41:26.593Z,102637.25
2018-10-21T05:43:56.845Z,102636.98
2018-10-21T05:46:45.636Z,102625.33
2018-10-21T05:49:16.031Z,102630.00
2018-10-21T05:51:48.578Z,102631.66
2018-10-21T05:54:21.087Z,102633.95
2018-10-21T05:56:51.981Z,102637.80
2018-10-21T05:59:22.872Z,102629.38
2018-10-21T06:01:53.989Z,102626.04
2018-10-21T06:04:26.100Z,102629.49
2018-10-21T06:06:56.019Z,102632.88
2018-10-21T06:09:25.979Z,102637.20
2018-10-21T06:11:56.893Z,102642.91
2018-10-21T06:14:26.792Z,102642.33
2018-10-21T06:17:17.640Z,102643.50
2018-10-21T06:19:52.893Z,102644.71
2018-10-21T06:22:23.115Z,102639.84
2018-10-21T06:24:54.611Z,102640.59
2018-10-21T06:27:25.766Z,102643.81
2018-10-21T06:29:55.858Z,102638.10
2018-10-21T06:32:27.264Z,102643.56
2018-10-21T06:34:59.186Z,102645.58
2018-10-21T06:37:30.945Z,102645.95
2018-10-21T06:40:00.887Z,102651.62
2018-10-21T06:42:32.173Z,102642.56
2018-10-21T06:47:54.946Z,102646.16
2018-10-21T06:50:25.478Z,102645.48
2018-10-21T06:52:55.516Z,102642.30
2018-10-21T06:55:25.670Z,102645.55
2018-10-21T06:57:55.784Z,102646.48
2018-10-21T07:00:26.565Z,102645.95
2018-10-21T07:02:58.018Z,102643.07
2018-10-21T07:06:16.813Z,102645.48
2018-10-21T07:08:47.731Z,102643.07
2018-10-21T07:11:23.159Z,102643.00
2018-10-21T07:13:55.894Z,102649.40
2018-10-21T07:16:32.171Z,102640.81
2018-10-21T07:19:04.391Z,102638.85
2018-10-21T07:21:39.375Z,102630.62
2018-10-21T07:24:09.913Z,102629.13
2018-10-21T07:26:43.628Z,102624.62
2018-10-21T07:29:16.985Z,102630.52
2018-10-21T07:31:52.516Z,102635.53
2018-10-21T07:34:26.687Z,102636.87
2018-10-21T07:36:56.780Z,102635.65
2018-10-21T07:39:27.343Z,102634.86
2018-10-21T07:41:58.744Z,102635.14
2018-10-21T07:44:29.071Z,102639.09
2018-10-21T07:47:03.000Z,102639.72
2018-10-21T07:49:35.480Z,102638.84
2018-10-21T07:52:14.782Z,102635.65
2018-10-21T07:54:47.765Z,102638.26
2018-10-21T07:57:21.126Z,102639.44
2018-10-21T07:59:51.921Z,102644.81
2018-10-21T08:02:22.119Z,102642.12
2018-10-21T08:04:52.751Z,102643.86
2018-10-21T08:07:39.785Z,102646.75
2018-10-21T08:10:10.557Z,102651.44
2018-10-21T08:12:43.173Z,102648.33
2018-10-21T08:15:13.311Z,102643.51
2018-10-21T08:17:44.141Z,102644.38
2018-10-21T08:20:25.466Z,102643.08
2018-10-21T08:22:56.991Z,102638.29
2018-10-21T08:25:29.186Z,102639.28
2018-10-21T08:28:01.145Z,102642.06
2018-10-21T08:30:33.432Z,102643.88
2018-10-21T08:33:04.530Z,102644.92
2018-10-21T08:35:40.523Z,102648.14
2018-10-21T08:38:13.658Z,102647.49
2018-10-21T08:40:45.413Z,102649.44
2018-10-21T08:43:41.257Z,102646.67
2018-10-21T08:46:14.051Z,102651.57
2018-10-21T08:52:07.960Z,102643.20
2018-10-21T08:54:59.905Z,102648.88
2018-10-21T08:57:57.065Z,102647.49
2018-10-21T09:00:43.565Z,102635.72
2018-10-21T09:03:19.800Z,102637.02
2018-10-21T09:05:54.896Z,102633.08
2018-10-21T09:08:41.125Z,102633.22
2018-10-21T09:11:12.592Z,102637.40
2018-10-21T09:13:44.204Z,102633.21
2018-10-21T09:19:30.063Z,102627.93
2018-10-21T09:22:01.907Z,102625.38
2018-10-21T09:24:34.772Z,102628.32
2018-10-21T09:27:06.418Z,102622.16
2018-10-21T09:29:44.575Z,102625.86
2018-10-21T09:32:18.667Z,102620.77
2018-10-21T09:34:51.746Z,102616.61
2018-10-21T09:37:22.755Z,102620.60
2018-10-21T09:39:53.170Z,102626.41
2018-10-21T09:42:23.871Z,102621.64
2018-10-21T09:44:54.178Z,102621.73
2018-10-21T09:50:02.079Z,102613.08
2018-10-21T09:52:33.390Z,102619.81
2018-10-21T09:55:05.228Z,102608.94
2018-10-21T09:57:42.225Z,102611.19
2018-10-21T10:00:18.232Z,102600.80
2018-10-21T10:05:44.167Z,102605.75
2018-10-21T10:08:15.245Z,102606.50
2018-10-21T10:10:46.470Z,102603.55
2018-10-21T10:13:17.342Z,102601.51
2018-10-21T10:15:47.927Z,102600.64
2018-10-21T10:18:19.047Z,102594.02
2018-10-21T10:20:49.990Z,102592.61
2018-10-21T10:23:21.119Z,102583.28
2018-10-21T10:25:51.840Z,102581.73
2018-10-21T10:28:22.246Z,102586.20
2018-10-21T10:30:52.947Z,102582.80
2018-10-21T10:33:23.432Z,102582.36
2018-10-21T10:35:54.339Z,102585.53
2018-10-21T10:41:07.843Z,102571.53
2018-10-21T10:43:38.545Z,102571.28
2018-10-21T10:46:11.570Z,102572.98
2018-10-21T10:48:42.043Z,102566.17
2018-10-21T10:51:12.424Z,102556.89
2018-10-21T10:53:43.689Z,102548.97
2018-10-21T10:58:59.756Z,102544.20
2018-10-21T11:01:30.735Z,102548.64
2018-10-21T11:04:01.084Z,102543.11
2018-10-21T11:06:33.624Z,102543.73
2018-10-21T11:09:08.344Z,102541.77
2018-10-21T11:11:39.263Z,102541.65
2018-10-21T11:14:09.750Z,102542.94
2018-10-21T11:16:40.748Z,102539.07
2018-10-21T11:21:26.980Z,102530.48
2018-10-21T11:23:57.701Z,102537.08
2018-10-21T11:26:28.227Z,102531.02
2018-10-21T11:28:59.554Z,102525.38
2018-10-21T11:31:30.156Z,102527.64
2018-10-21T11:34:00.591Z,102520.80
2018-10-21T11:36:30.814Z,102513.48
2018-10-21T11:39:00.830Z,102516.84
2018-10-21T11:41:32.843Z,102513.27
2018-10-21T11:44:03.104Z,102513.08
2018-10-21T11:46:34.192Z,102516.06
2018-10-21T11:49:04.938Z,102506.45
2018-10-21T11:51:35.595Z,102501.98
2018-10-21T11:54:06.043Z,102496.70
2018-10-21T11:56:38.725Z,102495.34
2018-10-21T11:59:09.762Z,102493.66
2018-10-21T12:01:41.526Z,102492.11
2018-10-21T12:04:12.246Z,102486.55
2018-10-21T12:06:43.516Z,102488.77
2018-10-21T12:09:14.471Z,102491.27
2018-10-21T12:11:44.501Z,102487.58
2018-10-21T12:14:15.799Z,102487.58
2018-10-21T12:16:46.937Z,102477.56
2018-10-21T12:22:05.728Z,102489.50
2018-10-21T12:24:48.037Z,102483.46
2018-10-21T12:27:18.430Z,102479.34
2018-10-21T12:29:48.828Z,102480.88
2018-10-21T12:32:20.050Z,102476.97
2018-10-21T12:34:50.267Z,102481.88
2018-10-21T12:40:09.078Z,102477.55
2018-10-21T12:42:40.693Z,102467.80
2018-10-21T12:45:12.497Z,102472.36
2018-10-21T12:47:42.669Z,102469.59
2018-10-21T12:50:12.672Z,102471.30
2018-10-21T12:52:44.176Z,102461.50
2018-10-21T12:55:14.928Z,102452.23
2018-10-21T12:57:48.274Z,102453.39
2018-10-21T13:00:19.568Z,102449.97
2018-10-21T13:02:49.951Z,102452.81
2018-10-21T13:05:20.282Z,102455.02
2018-10-21T13:07:50.144Z,102448.62
2018-10-21T13:10:21.735Z,102447.20
2018-10-21T13:12:51.562Z,102441.92
2018-10-21T13:15:22.251Z,102445.28
2018-10-21T13:17:52.450Z,102440.72
2018-10-21T13:20:22.858Z,102443.41
2018-10-21T13:22:54.918Z,102439.81
2018-10-21T13:25:25.613Z,102438.46
2018-10-21T13:27:56.098Z,102438.08
2018-10-21T13:30:26.546Z,102431.69
2018-10-21T13:32:56.529Z,102432.77
2018-10-21T13:35:26.708Z,102434.59
2018-10-21T13:37:57.779Z,102433.59
2018-10-21T13:40:32.645Z,102427.12
2018-10-21T13:43:02.922Z,102429.05
2018-10-21T13:45:33.525Z,102428.77
2018-10-21T13:48:04.902Z,102428.38
2018-10-21T13:50:47.065Z,102429.70
2018-10-21T13:53:18.485Z,102431.27
2018-10-21T13:58:40.400Z,102423.17
2018-10-21T14:01:23.315Z,102417.48
2018-10-21T14:03:54.627Z,102416.72
2018-10-21T14:06:35.355Z,102413.43
2018-10-21T14:09:12.494Z,102418.00
2018-10-21T14:11:43.976Z,102412.29
2018-10-21T14:14:20.390Z,102408.53
2018-10-21T14:19:45.436Z,102405.41
2018-10-21T14:22:17.780Z,102401.48
2018-10-21T14:24:50.663Z,102403.55
2018-10-21T14:27:20.814Z,102400.94
2018-10-21T14:29:53.001Z,102400.71
2018-10-21T14:32:24.707Z,102390.07
2018-10-21T14:34:59.287Z,102396.89
2018-10-21T14:37:35.185Z,102390.29
2018-10-21T14:40:15.507Z,102390.84
2018-10-21T14:42:51.858Z,102386.37
2018-10-21T14:45:26.368Z,102389.97
2018-10-21T14:47:58.813Z,102386.30
2018-10-21T14:50:33.484Z,102376.75
2018-10-21T14:53:05.391Z,102382.78
2018-10-21T14:55:36.861Z,102383.86
2018-10-21T14:58:08.766Z,102376.75
2018-10-21T15:00:38.721Z,102374.05
2018-10-21T15:03:08.828Z,102376.41
2018-10-21T15:05:39.668Z,102377.82
2018-10-21T15:08:13.036Z,102373.22
2018-10-21T15:10:47.287Z,102377.77
2018-10-21T15:13:17.497Z,102371.56
2018-10-21T15:15:50.222Z,102366.75
2018-10-21T15:18:21.599Z,102369.30
2018-10-21T15:20:52.627Z,102376.34
2018-10-21T15:23:24.659Z,102364.47
2018-10-21T15:25:54.883Z,102363.28
2018-10-21T15:28:27.461Z,102364.35
2018-10-21T15:30:57.634Z,102364.42
2018-10-21T15:33:29.975Z,102359.22
2018-10-21T15:36:00.087Z,102357.80
2018-10-21T15:38:31.103Z,102360.09
2018-10-21T15:41:10.144Z,102352.41
2018-10-21T15:43:43.640Z,102354.69
2018-10-21T15:46:13.862Z,102351.47
2018-10-21T15:48:45.445Z,102348.42
2018-10-21T15:51:21.370Z,102347.58
2018-10-21T15:53:55.869Z,102350.34
2018-10-21T15:56:26.294Z,102350.97
2018-10-21T15:58:58.876Z,102343.41
2018-10-21T16:01:33.511Z,102355.73
2018-10-21T16:04:03.983Z,102355.86
2018-10-21T16:06:35.206Z,102352.68
2018-10-21T16:09:08.974Z,102349.53
2018-10-21T16:11:39.536Z,102346.83
2018-10-21T16:17:08.935Z,102346.13
2018-10-21T16:19:44.482Z,102345.42
2018-10-21T16:22:17.036Z,102343.66
2018-10-21T16:24:55.469Z,102342.02
2018-10-21T16:27:26.232Z,102342.98
2018-10-21T16:29:58.756Z,102341.16
2018-10-21T16:32:29.822Z,102338.87
2018-10-21T16:34:59.965Z,102342.98
2018-10-21T16:37:31.711Z,102342.08
2018-10-21T16:40:04.413Z,102337.88
2018-10-21T16:42:35.150Z,102349.44
2018-10-21T16:45:05.812Z,102349.54
2018-10-21T16:47:38.635Z,102343.69
2018-10-21T16:50:14.720Z,102345.84
2018-10-21T16:52:46.458Z,102344.91
2018-10-21T16:55:18.342Z,102340.35
2018-10-21T16:57:52.458Z,102336.66
2018-10-21T17:00:22.697Z,102343.50
2018-10-21T17:02:52.563Z,102335.66
2018-10-21T17:05:22.858Z,102342.34
2018-10-21T17:07:52.789Z,102329.14
2018-10-21T17:10:24.033Z,102329.20
2018-10-21T17:12:54.121Z,102332.42
2018-10-21T17:15:24.061Z,102326.22
2018-10-21T17:17:54.080Z,102337.17
2018-10-21T17:20:24.485Z,102338.64
2018-10-21T17:22:55.599Z,102334.37
2018-10-21T17:25:26.745Z,102335.58
2018-10-21T17:27:57.672Z,102329.67
2018-10-21T17:30:30.112Z,102331.30
2018-10-21T17:33:02.308Z,102319.23
2018-10-21T17:35:33.190Z,102327.38
2018-10-21T17:38:09.009Z,102330.59
2018-10-21T17:40:43.301Z,102332.84
2018-10-21T17:43:14.715Z,102325.15
2018-10-21T17:45:47.183Z,102331.41
2018-10-21T17:48:20.413Z,102323.80
2018-10-21T17:50:51.117Z,102330.19
2018-10-21T17:53:22.169Z,102332.52
2018-10-21T17:55:54.260Z,102331.50
2018-10-21T17:58:24.678Z,102333.33
2018-10-21T18:00:55.321Z,102336.03
2018-10-21T18:03:27.533Z,102335.45
2018-10-21T18:05:58.991Z,102333.72
2018-10-21T18:08:29.762Z,102326.56
2018-10-21T18:11:01.322Z,102337.28
2018-10-21T18:13:31.939Z,102338.41
2018-10-21T18:16:02.194Z,102336.11
2018-10-21T18:18:32.718Z,102335.98
2018-10-21T18:21:03.057Z,102346.64
2018-10-21T18:23:39.312Z,102341.01
2018-10-21T18:26:11.709Z,102344.55
2018-10-21T18:28:44.244Z,102343.39
2018-10-21T18:31:15.181Z,102344.44
2018-10-21T18:33:48.298Z,102354.06
2018-10-21T18:36:19.999Z,102356.25
2018-10-21T18:38:51.825Z,102359.56
2018-10-21T18:41:23.179Z,102345.84
2018-10-21T18:43:55.094Z,102346.97
2018-10-21T18:46:33.960Z,102351.38
2018-10-21T18:49:07.972Z,102347.62
2018-10-21T18:51:38.857Z,102347.81
2018-10-21T18:54:10.025Z,102341.92
2018-10-21T18:56:41.694Z,102343.71
2018-10-21T18:59:13.504Z,102345.00
2018-10-21T19:01:44.928Z,102345.59
2018-10-21T19:04:15.378Z,102343.88
2018-10-21T19:06:46.224Z,102346.57
2018-10-21T19:09:16.753Z,102342.52
2018-10-21T19:11:47.538Z,102339.59
2018-10-21T19:14:19.915Z,102336.16
2018-10-21T19:16:52.085Z,102334.59
2018-10-21T19:19:22.850Z,102337.39
2018-10-21T19:21:53.137Z,102330.04
2018-10-21T19:24:24.042Z,102332.73
2018-10-21T19:26:55.315Z,102326.48
2018-10-21T19:29:26.913Z,102323.56
2018-10-21T19:31:59.529Z,102328.08
2018-10-21T19:34:34.302Z,102328.95
2018-10-21T19:39:55.037Z,102335.33
2018-10-21T19:42:25.725Z,102324.67
2018-10-21T19:44:56.642Z,102327.05
2018-10-21T19:47:34.887Z,102327.47
2018-10-21T19:50:07.770Z,102327.72
2018-10-21T19:52:38.972Z,102319.28
2018-10-21T19:55:10.812Z,102322.48
2018-10-21T19:57:42.728Z,102326.52
2018-10-21T20:03:04.258Z,102320.94
2018-10-21T20:05:35.528Z,102310.00
2018-10-21T20:08:10.519Z,102320.69
2018-10-21T20:10:41.234Z,102321.25
2018-10-21T20:13:13.934Z,102312.69
2018-10-21T20:15:47.871Z,102308.95
2018-10-21T20:18:21.774Z,102314.03
2018-10-21T20:20:54.073Z,102310.28
2018-10-21T20:23:25.011Z,102315.61
2018-10-21T20:25:58.801Z,102308.95
2018-10-21T20:28:31.287Z,102300.38
2018-10-21T20:31:01.642Z,102303.07
2018-10-21T20:33:31.757Z,102305.45
2018-10-21T20:36:02.584Z,102307.92
2018-10-21T20:38:35.388Z,102308.59
2018-10-21T20:41:08.795Z,102306.85
2018-10-21T20:43:40.951Z,102309.01
2018-10-21T20:46:12.751Z,102304.16
2018-10-21T20:48:45.316Z,102302.14
2018-10-21T20:51:16.123Z,102289.24
2018-10-21T20:53:48.407Z,102294.45
2018-10-21T20:56:19.352Z,102291.45
2018-10-21T20:58:50.069Z,102290.78
2018-10-21T21:01:20.338Z,102294.81
2018-10-21T21:03:51.114Z,102293.11
2018-10-21T21:06:21.482Z,102290.70
2018-10-21T21:08:51.706Z,102289.44
2018-10-21T21:11:23.710Z,102287.47
2018-10-21T21:13:59.951Z,102285.93
2018-10-21T21:16:32.061Z,102284.58
2018-10-21T21:19:02.456Z,102288.20
2018-10-21T21:21:33.076Z,102290.34
2018-10-21T21:24:04.639Z,102280.98
2018-10-21T21:26:38.514Z,102275.95
2018-10-21T21:29:09.444Z,102281.67
2018-10-21T21:31:40.181Z,102281.16
2018-10-21T21:34:11.709Z,102274.63
2018-10-21T21:36:42.897Z,102278.16
2018-10-21T21:39:15.721Z,102279.20
2018-10-21T21:41:48.488Z,102274.55
2018-10-21T21:44:19.142Z,102281.53
2018-10-21T21:46:49.541Z,102281.90
2018-10-21T21:49:19.458Z,102278.90
2018-10-21T21:51:49.963Z,102275.42
2018-10-21T21:54:21.892Z,102277.19
2018-10-21T21:56:51.833Z,102272.73
2018-10-21T21:59:22.962Z,102279.45
2018-10-21T22:01:52.946Z,102278.84
2018-10-21T22:04:22.971Z,102276.03
2018-10-21T22:06:53.628Z,102276.46
2018-10-21T22:09:24.050Z,102272.65
2018-10-21T22:11:55.111Z,102269.61
2018-10-21T22:14:25.737Z,102274.13
2018-10-21T22:16:56.269Z,102267.15
2018-10-21T22:19:27.657Z,102262.57
2018-10-21T22:21:57.521Z,102262.12
2018-10-21T22:24:28.746Z,102261.23
2018-10-21T22:26:59.122Z,102257.67
2018-10-21T22:29:29.090Z,102247.14
2018-10-21T22:31:59.002Z,102254.23
2018-10-21T22:34:28.979Z,102254.44
2018-10-21T22:36:58.902Z,102250.70
2018-10-21T22:39:28.959Z,102250.08
2018-10-21T22:41:58.954Z,102259.12
2018-10-21T22:44:30.091Z,102252.34
2018-10-21T22:49:31.528Z,102260.24
2018-10-21T22:52:01.857Z,102260.62
2018-10-21T22:54:31.949Z,102251.44
2018-10-21T22:57:02.503Z,102250.45
2018-10-21T22:59:33.139Z,102256.02
2018-10-21T23:02:03.466Z,102247.77
2018-10-21T23:04:33.623Z,102242.38
2018-10-21T23:07:05.113Z,102240.65
2018-10-21T23:09:35.035Z,102236.02
2018-10-21T23:12:08.441Z,102238.88
2018-10-21T23:14:39.358Z,102245.55
2018-10-21T23:17:09.464Z,102247.63
2018-10-21T23:19:45.257Z,102249.84
2018-10-21T23:22:15.368Z,102243.00
2018-10-21T23:24:46.165Z,102247.69
2018-10-21T23:27:18.364Z,102241.77
2018-10-21T23:29:48.667Z,102250.83
2018-10-21T23:32:18.959Z,102239.14
2018-10-21T23:34:48.802Z,102249.48
2018-10-21T23:37:18.889Z,102251.37
2018-10-21T23:39:49.662Z,102248.31
2018-10-21T23:42:21.331Z,102239.76
2018-10-21T23:44:54.728Z,102234.73
2018-10-21T23:47:26.708Z,102240.34
2018-10-21T23:49:57.012Z,102243.66
2018-10-21T23:52:27.957Z,102229.05
2018-10-21T23:55:00.897Z,102237.97
2018-10-21T23:57:36.751Z,102238.83
